Williamsport, Indiana
Current Conditions -  °F | °C
As of 11:55 AM on Friday 28 Nov 2014 (Local Time) from KDNV Reporting Station
Clear Clear  
Wind Chill: 17°   Ceiling: Unl
Heat Index: 28°   Visibility: 10mi
Dew Point: 21°   Wind: 14mph
Humidity: 74%   Direction: 150°SSE
Pressure: 30.2"   Gusts: NA
Location:  40.29°N, 87.29°W
Report Text: KDNV 281655Z AUTO 15012KT 10SM CLR M02/M06 A3020 RMK AO2 T10231063
Loading
Personal Weather Stations






























Interactive Weather Map New forecast layout! Learn more

10-Day Weather Forecast

Advertisements
Track Severe Weather on mobile